sensor_id;sensor_type;location;lat;lon;timestamp;temperature;humidity
10583;DHT22;33679;51.218;6.786;2023-04-15T00:01:20;13.90;99.90
10583;DHT22;33679;51.218;6.786;2023-04-15T00:03:53;13.90;99.90
10583;DHT22;33679;51.218;6.786;2023-04-15T00:06:26;13.90;99.90
10583;DHT22;33679;51.218;6.786;2023-04-15T00:09:00;13.80;99.90
10583;DHT22;33679;51.218;6.786;2023-04-15T00:11:33;13.80;99.90
10583;DHT22;33679;51.218;6.786;2023-04-15T00:14:06;13.80;99.90
10583;DHT22;33679;51.218;6.786;2023-04-15T00:16:38;13.70;99.90
10583;DHT22;33679;51.218;6.786;2023-04-15T00:19:11;13.60;99.90
10583;DHT22;33679;51.218;6.786;2023-04-15T00:21:44;13.60;99.90
10583;DHT22;33679;51.218;6.786;2023-04-15T00:24:18;13.50;99.90
10583;DHT22;33679;51.218;6.786;2023-04-15T00:26:53;13.50;99.90
10583;DHT22;33679;51.218;6.786;2023-04-15T00:29:27;13.50;99.90
10583;DHT22;33679;51.218;6.786;2023-04-15T00:32:00;13.50;99.90
10583;DHT22;33679;51.218;6.786;2023-04-15T00:34:32;13.50;99.90
10583;DHT22;33679;51.218;6.786;2023-04-15T00:37:05;13.50;99.90
10583;DHT22;33679;51.218;6.786;2023-04-15T00:39:41;13.50;99.90
10583;DHT22;33679;51.218;6.786;2023-04-15T00:42:15;13.50;99.90
10583;DHT22;33679;51.218;6.786;2023-04-15T00:44:48;13.50;99.90
10583;DHT22;33679;51.218;6.786;2023-04-15T00:47:20;13.50;99.90
10583;DHT22;33679;51.218;6.786;2023-04-15T00:49:53;13.50;99.90
10583;DHT22;33679;51.218;6.786;2023-04-15T00:52:25;13.40;99.90
10583;DHT22;33679;51.218;6.786;2023-04-15T00:54:59;13.40;99.90
10583;DHT22;33679;51.218;6.786;2023-04-15T00:57:34;13.40;99.90
10583;DHT22;33679;51.218;6.786;2023-04-15T01:00:07;13.40;99.90
10583;DHT22;33679;51.218;6.786;2023-04-15T01:02:43;13.40;99.90
10583;DHT22;33679;51.218;6.786;2023-04-15T01:05:16;13.40;99.90
10583;DHT22;33679;51.218;6.786;2023-04-15T01:07:49;13.30;99.90
10583;DHT22;33679;51.218;6.786;2023-04-15T01:10:23;13.40;99.90
10583;DHT22;33679;51.218;6.786;2023-04-15T01:12:58;13.40;99.90
10583;DHT22;33679;51.218;6.786;2023-04-15T01:15:31;13.30;99.90
10583;DHT22;33679;51.218;6.786;2023-04-15T01:18:04;13.30;99.90
10583;DHT22;33679;51.218;6.786;2023-04-15T01:20:38;13.30;99.90
10583;DHT22;33679;51.218;6.786;2023-04-15T01:23:13;13.30;99.90
10583;DHT22;33679;51.218;6.786;2023-04-15T01:25:49;13.30;99.90
10583;DHT22;33679;51.218;6.786;2023-04-15T01:28:23;13.30;99.90
10583;DHT22;33679;51.218;6.786;2023-04-15T01:31:06;13.30;99.90
10583;DHT22;33679;51.218;6.786;2023-04-15T01:33:42;13.30;99.90
10583;DHT22;33679;51.218;6.786;2023-04-15T01:36:14;13.20;99.90
10583;DHT22;33679;51.218;6.786;2023-04-15T01:38:47;13.20;99.90
10583;DHT22;33679;51.218;6.786;2023-04-15T01:41:24;13.20;99.90
10583;DHT22;33679;51.218;6.786;2023-04-15T01:43:57;13.30;99.90
10583;DHT22;33679;51.218;6.786;2023-04-15T01:46:29;13.20;99.90
10583;DHT22;33679;51.218;6.786;2023-04-15T01:49:02;13.20;99.90
10583;DHT22;33679;51.218;6.786;2023-04-15T01:51:36;13.20;99.90
10583;DHT22;33679;51.218;6.786;2023-04-15T01:54:10;13.20;99.90
10583;DHT22;33679;51.218;6.786;2023-04-15T01:56:44;13.20;99.90
10583;DHT22;33679;51.218;6.786;2023-04-15T01:59:16;13.20;99.90
10583;DHT22;33679;51.218;6.786;2023-04-15T02:01:50;13.10;99.90
10583;DHT22;33679;51.218;6.786;2023-04-15T02:04:24;13.10;99.90
10583;DHT22;33679;51.218;6.786;2023-04-15T02:06:56;13.20;99.90
10583;DHT22;33679;51.218;6.786;2023-04-15T02:09:29;13.20;99.90
10583;DHT22;33679;51.218;6.786;2023-04-15T02:12:03;13.10;99.90
10583;DHT22;33679;51.218;6.786;2023-04-15T02:14:35;13.10;99.90
10583;DHT22;33679;51.218;6.786;2023-04-15T02:17:08;13.00;99.90
10583;DHT22;33679;51.218;6.786;2023-04-15T02:19:41;13.00;99.90
10583;DHT22;33679;51.218;6.786;2023-04-15T02:22:13;13.10;99.90
10583;DHT22;33679;51.218;6.786;2023-04-15T02:24:50;13.10;99.90
10583;DHT22;33679;51.218;6.786;2023-04-15T02:27:24;13.00;99.90
10583;DHT22;33679;51.218;6.786;2023-04-15T02:29:58;13.10;99.90
10583;DHT22;33679;51.218;6.786;2023-04-15T02:32:34;13.10;99.90
10583;DHT22;33679;51.218;6.786;2023-04-15T02:35:08;13.10;99.90
10583;DHT22;33679;51.218;6.786;2023-04-15T02:37:40;13.00;99.90
10583;DHT22;33679;51.218;6.786;2023-04-15T02:40:16;13.00;99.90
10583;DHT22;33679;51.218;6.786;2023-04-15T02:42:51;13.10;99.90
10583;DHT22;33679;51.218;6.786;2023-04-15T02:45:23;13.10;99.90
10583;DHT22;33679;51.218;6.786;2023-04-15T02:47:57;13.10;99.90
10583;DHT22;33679;51.218;6.786;2023-04-15T02:50:33;13.10;99.90
10583;DHT22;33679;51.218;6.786;2023-04-15T02:53:08;13.10;99.90
10583;DHT22;33679;51.218;6.786;2023-04-15T02:55:43;13.10;99.90
10583;DHT22;33679;51.218;6.786;2023-04-15T02:58:17;13.10;99.90
10583;DHT22;33679;51.218;6.786;2023-04-15T03:00:50;13.00;99.90
10583;DHT22;33679;51.218;6.786;2023-04-15T03:03:23;13.00;99.90
10583;DHT22;33679;51.218;6.786;2023-04-15T03:05:56;13.00;99.90
10583;DHT22;33679;51.218;6.786;2023-04-15T03:08:30;13.00;99.90
10583;DHT22;33679;51.218;6.786;2023-04-15T03:11:03;13.00;99.90
10583;DHT22;33679;51.218;6.786;2023-04-15T03:13:41;13.00;99.90
10583;DHT22;33679;51.218;6.786;2023-04-15T03:16:24;13.00;99.90
10583;DHT22;33679;51.218;6.786;2023-04-15T03:18:57;12.90;99.90
10583;DHT22;33679;51.218;6.786;2023-04-15T03:21:29;13.00;99.90
10583;DHT22;33679;51.218;6.786;2023-04-15T03:24:02;12.90;99.90
10583;DHT22;33679;51.218;6.786;2023-04-15T03:26:39;12.90;99.90
10583;DHT22;33679;51.218;6.786;2023-04-15T03:29:20;12.90;99.90
10583;DHT22;33679;51.218;6.786;2023-04-15T03:31:52;12.90;99.90
10583;DHT22;33679;51.218;6.786;2023-04-15T03:34:25;12.80;99.90
10583;DHT22;33679;51.218;6.786;2023-04-15T03:36:57;12.80;99.90
10583;DHT22;33679;51.218;6.786;2023-04-15T03:39:31;12.80;99.90
10583;DHT22;33679;51.218;6.786;2023-04-15T03:42:03;12.80;99.90
10583;DHT22;33679;51.218;6.786;2023-04-15T03:44:36;12.80;99.90
10583;DHT22;33679;51.218;6.786;2023-04-15T03:47:09;12.90;99.90
10583;DHT22;33679;51.218;6.786;2023-04-15T03:49:42;12.90;99.90
10583;DHT22;33679;51.218;6.786;2023-04-15T03:52:16;12.90;99.90
10583;DHT22;33679;51.218;6.786;2023-04-15T03:54:48;12.90;99.90
10583;DHT22;33679;51.218;6.786;2023-04-15T03:57:21;12.80;99.90
10583;DHT22;33679;51.218;6.786;2023-04-15T03:59:55;12.80;99.90
10583;DHT22;33679;51.218;6.786;2023-04-15T04:02:29;12.80;99.90
10583;DHT22;33679;51.218;6.786;2023-04-15T04:05:01;12.90;99.90
10583;DHT22;33679;51.218;6.786;2023-04-15T04:07:35;12.90;99.90
10583;DHT22;33679;51.218;6.786;2023-04-15T04:10:10;12.90;99.90
10583;DHT22;33679;51.218;6.786;2023-04-15T04:12:42;12.90;99.90
10583;DHT22;33679;51.218;6.786;2023-04-15T04:15:19;12.90;99.90
10583;DHT22;33679;51.218;6.786;2023-04-15T04:17:52;12.80;99.90
10583;DHT22;33679;51.218;6.786;2023-04-15T04:20:25;12.80;99.90
10583;DHT22;33679;51.218;6.786;2023-04-15T04:22:57;12.80;99.90
10583;DHT22;33679;51.218;6.786;2023-04-15T04:25:30;12.70;99.90
10583;DHT22;33679;51.218;6.786;2023-04-15T04:28:03;12.60;99.90
10583;DHT22;33679;51.218;6.786;2023-04-15T04:30:37;12.60;99.90
10583;DHT22;33679;51.218;6.786;2023-04-15T04:33:09;12.60;99.90
10583;DHT22;33679;51.218;6.786;2023-04-15T04:35:46;12.60;99.90
10583;DHT22;33679;51.218;6.786;2023-04-15T04:38:24;12.60;99.90
10583;DHT22;33679;51.218;6.786;2023-04-15T04:41:18;12.60;99.90
10583;DHT22;33679;51.218;6.786;2023-04-15T04:44:04;12.60;99.90
10583;DHT22;33679;51.218;6.786;2023-04-15T04:46:40;12.60;99.90
10583;DHT22;33679;51.218;6.786;2023-04-15T04:49:50;12.60;99.90
10583;DHT22;33679;51.218;6.786;2023-04-15T04:52:25;12.60;99.90
10583;DHT22;33679;51.218;6.786;2023-04-15T04:54:58;12.60;99.90
10583;DHT22;33679;51.218;6.786;2023-04-15T04:57:33;12.60;99.90
10583;DHT22;33679;51.218;6.786;2023-04-15T05:00:07;12.50;99.90
10583;DHT22;33679;51.218;6.786;2023-04-15T05:02:44;12.60;99.90
10583;DHT22;33679;51.218;6.786;2023-04-15T05:05:25;12.60;99.90
10583;DHT22;33679;51.218;6.786;2023-04-15T05:07:58;12.50;99.90
10583;DHT22;33679;51.218;6.786;2023-04-15T05:10:30;12.40;99.90
10583;DHT22;33679;51.218;6.786;2023-04-15T05:13:05;12.40;99.90
10583;DHT22;33679;51.218;6.786;2023-04-15T05:15:42;12.40;99.90
10583;DHT22;33679;51.218;6.786;2023-04-15T05:18:27;12.40;99.90
10583;DHT22;33679;51.218;6.786;2023-04-15T05:21:02;12.40;99.90
10583;DHT22;33679;51.218;6.786;2023-04-15T05:23:35;12.50;99.90
10583;DHT22;33679;51.218;6.786;2023-04-15T05:26:08;12.50;99.90
10583;DHT22;33679;51.218;6.786;2023-04-15T05:28:42;12.40;99.90
10583;DHT22;33679;51.218;6.786;2023-04-15T05:31:14;12.40;99.90
10583;DHT22;33679;51.218;6.786;2023-04-15T05:33:50;12.40;99.90
10583;DHT22;33679;51.218;6.786;2023-04-15T05:36:23;12.40;99.90
10583;DHT22;33679;51.218;6.786;2023-04-15T05:38:56;12.40;99.90
10583;DHT22;33679;51.218;6.786;2023-04-15T05:41:28;12.30;99.90
10583;DHT22;33679;51.218;6.786;2023-04-15T05:44:00;12.40;99.90
10583;DHT22;33679;51.218;6.786;2023-04-15T05:46:32;12.40;99.90
10583;DHT22;33679;51.218;6.786;2023-04-15T05:49:06;12.40;99.90
10583;DHT22;33679;51.218;6.786;2023-04-15T05:51:38;12.50;99.90
10583;DHT22;33679;51.218;6.786;2023-04-15T05:54:11;12.50;99.90
10583;DHT22;33679;51.218;6.786;2023-04-15T05:56:44;12.50;99.90
10583;DHT22;33679;51.218;6.786;2023-04-15T05:59:16;12.60;99.90
10583;DHT22;33679;51.218;6.786;2023-04-15T06:01:49;12.60;99.90
10583;DHT22;33679;51.218;6.786;2023-04-15T06:04:23;12.70;99.90
10583;DHT22;33679;51.218;6.786;2023-04-15T06:06:55;12.70;99.90
10583;DHT22;33679;51.218;6.786;2023-04-15T06:09:27;12.80;99.90
10583;DHT22;33679;51.218;6.786;2023-04-15T06:12:00;12.90;99.90
10583;DHT22;33679;51.218;6.786;2023-04-15T06:14:33;12.90;99.90
10583;DHT22;33679;51.218;6.786;2023-04-15T06:17:06;13.00;99.90
10583;DHT22;33679;51.218;6.786;2023-04-15T06:19:41;13.00;99.90
10583;DHT22;33679;51.218;6.786;2023-04-15T06:22:15;13.00;99.90
10583;DHT22;33679;51.218;6.786;2023-04-15T06:24:48;13.00;99.90
10583;DHT22;33679;51.218;6.786;2023-04-15T06:27:21;13.00;99.90
10583;DHT22;33679;51.218;6.786;2023-04-15T06:29:54;13.10;99.90
10583;DHT22;33679;51.218;6.786;2023-04-15T06:32:27;13.10;99.90
10583;DHT22;33679;51.218;6.786;2023-04-15T06:35:01;13.10;99.90
10583;DHT22;33679;51.218;6.786;2023-04-15T06:37:37;13.10;99.90
10583;DHT22;33679;51.218;6.786;2023-04-15T06:40:10;13.10;99.90
10583;DHT22;33679;51.218;6.786;2023-04-15T06:42:43;13.20;99.90
10583;DHT22;33679;51.218;6.786;2023-04-15T06:45:16;13.20;99.90
10583;DHT22;33679;51.218;6.786;2023-04-15T06:47:52;13.20;99.90
10583;DHT22;33679;51.218;6.786;2023-04-15T06:50:26;13.20;99.90
10583;DHT22;33679;51.218;6.786;2023-04-15T06:52:58;13.20;99.90
10583;DHT22;33679;51.218;6.786;2023-04-15T06:55:30;13.20;99.90
10583;DHT22;33679;51.218;6.786;2023-04-15T06:58:04;13.30;99.90
10583;DHT22;33679;51.218;6.786;2023-04-15T07:00:36;13.50;99.90
10583;DHT22;33679;51.218;6.786;2023-04-15T07:03:11;13.60;99.90
10583;DHT22;33679;51.218;6.786;2023-04-15T07:05:46;13.70;99.90
10583;DHT22;33679;51.218;6.786;2023-04-15T07:08:19;13.80;99.90
10583;DHT22;33679;51.218;6.786;2023-04-15T07:10:53;13.90;99.90
10583;DHT22;33679;51.218;6.786;2023-04-15T07:13:25;14.00;99.90
10583;DHT22;33679;51.218;6.786;2023-04-15T07:15:58;14.10;99.90
10583;DHT22;33679;51.218;6.786;2023-04-15T07:18:30;14.20;99.90
10583;DHT22;33679;51.218;6.786;2023-04-15T07:21:05;14.30;99.90
10583;DHT22;33679;51.218;6.786;2023-04-15T07:23:37;14.40;99.90
10583;DHT22;33679;51.218;6.786;2023-04-15T07:26:09;14.50;99.90
10583;DHT22;33679;51.218;6.786;2023-04-15T07:28:44;14.60;99.90
10583;DHT22;33679;51.218;6.786;2023-04-15T07:31:19;14.60;99.90
10583;DHT22;33679;51.218;6.786;2023-04-15T07:33:52;14.60;99.90
10583;DHT22;33679;51.218;6.786;2023-04-15T07:36:28;14.60;99.90
10583;DHT22;33679;51.218;6.786;2023-04-15T07:39:00;14.70;99.90
10583;DHT22;33679;51.218;6.786;2023-04-15T07:41:34;14.60;99.90
10583;DHT22;33679;51.218;6.786;2023-04-15T07:44:09;14.60;99.90
10583;DHT22;33679;51.218;6.786;2023-04-15T07:46:44;14.50;99.90
10583;DHT22;33679;51.218;6.786;2023-04-15T07:49:16;14.50;99.90
10583;DHT22;33679;51.218;6.786;2023-04-15T07:51:50;14.40;99.90
10583;DHT22;33679;51.218;6.786;2023-04-15T07:54:23;14.40;99.90
10583;DHT22;33679;51.218;6.786;2023-04-15T07:56:56;14.40;99.90
10583;DHT22;33679;51.218;6.786;2023-04-15T07:59:29;14.50;99.90
10583;DHT22;33679;51.218;6.786;2023-04-15T08:02:06;14.50;99.90
10583;DHT22;33679;51.218;6.786;2023-04-15T08:04:39;14.60;99.90
10583;DHT22;33679;51.218;6.786;2023-04-15T08:07:13;14.60;99.90
10583;DHT22;33679;51.218;6.786;2023-04-15T08:09:48;14.60;99.90
10583;DHT22;33679;51.218;6.786;2023-04-15T08:12:21;14.70;99.90
10583;DHT22;33679;51.218;6.786;2023-04-15T08:14:54;14.60;99.90
10583;DHT22;33679;51.218;6.786;2023-04-15T08:17:27;14.70;99.90
10583;DHT22;33679;51.218;6.786;2023-04-15T08:19:59;14.70;99.90
10583;DHT22;33679;51.218;6.786;2023-04-15T08:22:33;14.70;99.90
10583;DHT22;33679;51.218;6.786;2023-04-15T08:25:06;14.70;99.90
10583;DHT22;33679;51.218;6.786;2023-04-15T08:27:38;14.60;99.90
10583;DHT22;33679;51.218;6.786;2023-04-15T08:30:11;14.60;99.90
10583;DHT22;33679;51.218;6.786;2023-04-15T08:32:45;14.50;99.90
10583;DHT22;33679;51.218;6.786;2023-04-15T08:35:17;14.60;99.90
10583;DHT22;33679;51.218;6.786;2023-04-15T08:37:51;14.70;99.90
10583;DHT22;33679;51.218;6.786;2023-04-15T08:40:28;14.60;99.90
10583;DHT22;33679;51.218;6.786;2023-04-15T08:43:07;14.70;99.90
10583;DHT22;33679;51.218;6.786;2023-04-15T08:45:40;14.70;99.90
10583;DHT22;33679;51.218;6.786;2023-04-15T08:48:14;14.70;99.90
10583;DHT22;33679;51.218;6.786;2023-04-15T08:50:47;14.70;99.90
10583;DHT22;33679;51.218;6.786;2023-04-15T08:53:21;14.70;99.90
10583;DHT22;33679;51.218;6.786;2023-04-15T08:55:56;14.80;99.90
10583;DHT22;33679;51.218;6.786;2023-04-15T08:58:31;14.80;99.90
10583;DHT22;33679;51.218;6.786;2023-04-15T09:01:04;14.80;99.90
10583;DHT22;33679;51.218;6.786;2023-04-15T09:03:37;14.80;99.90
10583;DHT22;33679;51.218;6.786;2023-04-15T09:06:10;14.90;99.90
10583;DHT22;33679;51.218;6.786;2023-04-15T09:08:49;14.90;99.90
10583;DHT22;33679;51.218;6.786;2023-04-15T09:11:21;15.00;99.90
10583;DHT22;33679;51.218;6.786;2023-04-15T09:13:56;15.00;99.90
10583;DHT22;33679;51.218;6.786;2023-04-15T09:16:29;15.10;99.90
10583;DHT22;33679;51.218;6.786;2023-04-15T09:19:19;15.10;99.90
10583;DHT22;33679;51.218;6.786;2023-04-15T09:21:57;15.20;99.90
10583;DHT22;33679;51.218;6.786;2023-04-15T09:24:39;15.20;99.90
10583;DHT22;33679;51.218;6.786;2023-04-15T09:27:18;15.30;99.90
10583;DHT22;33679;51.218;6.786;2023-04-15T09:29:58;15.30;99.90
10583;DHT22;33679;51.218;6.786;2023-04-15T09:32:30;15.50;99.90
10583;DHT22;33679;51.218;6.786;2023-04-15T09:35:10;15.50;99.90
10583;DHT22;33679;51.218;6.786;2023-04-15T09:37:43;15.70;99.90
10583;DHT22;33679;51.218;6.786;2023-04-15T09:40:30;15.60;99.90
10583;DHT22;33679;51.218;6.786;2023-04-15T09:43:06;15.60;99.90
10583;DHT22;33679;51.218;6.786;2023-04-15T09:45:48;15.50;99.90
10583;DHT22;33679;51.218;6.786;2023-04-15T09:48:22;15.50;99.90
10583;DHT22;33679;51.218;6.786;2023-04-15T09:50:58;15.30;99.90
10583;DHT22;33679;51.218;6.786;2023-04-15T09:53:33;15.30;99.90
10583;DHT22;33679;51.218;6.786;2023-04-15T09:56:09;15.40;99.90
10583;DHT22;33679;51.218;6.786;2023-04-15T09:58:41;15.40;99.90
10583;DHT22;33679;51.218;6.786;2023-04-15T10:01:14;15.50;99.90
10583;DHT22;33679;51.218;6.786;2023-04-15T10:03:47;15.40;99.90
10583;DHT22;33679;51.218;6.786;2023-04-15T10:06:20;15.40;99.90
10583;DHT22;33679;51.218;6.786;2023-04-15T10:08:54;15.40;99.90
10583;DHT22;33679;51.218;6.786;2023-04-15T10:11:29;15.50;99.90
10583;DHT22;33679;51.218;6.786;2023-04-15T10:14:03;15.60;99.90
10583;DHT22;33679;51.218;6.786;2023-04-15T10:16:40;15.80;99.90
10583;DHT22;33679;51.218;6.786;2023-04-15T10:19:20;15.90;99.90
10583;DHT22;33679;51.218;6.786;2023-04-15T10:21:55;15.90;99.90
10583;DHT22;33679;51.218;6.786;2023-04-15T10:24:30;15.90;99.90
10583;DHT22;33679;51.218;6.786;2023-04-15T10:27:06;16.00;99.90
10583;DHT22;33679;51.218;6.786;2023-04-15T10:29:39;16.00;99.90
10583;DHT22;33679;51.218;6.786;2023-04-15T10:32:12;16.00;99.90
10583;DHT22;33679;51.218;6.786;2023-04-15T10:34:45;16.00;99.90
10583;DHT22;33679;51.218;6.786;2023-04-15T10:37:22;16.10;99.90
10583;DHT22;33679;51.218;6.786;2023-04-15T10:39:54;16.10;99.90
10583;DHT22;33679;51.218;6.786;2023-04-15T10:42:34;16.00;99.90
10583;DHT22;33679;51.218;6.786;2023-04-15T10:45:15;16.10;99.90
10583;DHT22;33679;51.218;6.786;2023-04-15T10:47:51;16.10;99.90
10583;DHT22;33679;51.218;6.786;2023-04-15T10:50:27;16.20;99.90
10583;DHT22;33679;51.218;6.786;2023-04-15T10:53:02;16.20;99.90
10583;DHT22;33679;51.218;6.786;2023-04-15T10:55:36;16.20;99.90
10583;DHT22;33679;51.218;6.786;2023-04-15T10:58:09;16.10;99.90
10583;DHT22;33679;51.218;6.786;2023-04-15T11:00:49;16.10;99.90
10583;DHT22;33679;51.218;6.786;2023-04-15T11:03:36;16.20;99.90
10583;DHT22;33679;51.218;6.786;2023-04-15T11:06:09;16.20;99.90
10583;DHT22;33679;51.218;6.786;2023-04-15T11:08:54;16.00;99.90
10583;DHT22;33679;51.218;6.786;2023-04-15T11:12:04;16.00;99.90
10583;DHT22;33679;51.218;6.786;2023-04-15T11:14:40;15.90;99.90
10583;DHT22;33679;51.218;6.786;2023-04-15T11:17:13;15.80;99.90
10583;DHT22;33679;51.218;6.786;2023-04-15T11:19:48;15.80;99.90
10583;DHT22;33679;51.218;6.786;2023-04-15T11:22:22;15.70;99.90
10583;DHT22;33679;51.218;6.786;2023-04-15T11:24:55;15.70;99.90
10583;DHT22;33679;51.218;6.786;2023-04-15T11:27:30;15.70;99.90
10583;DHT22;33679;51.218;6.786;2023-04-15T11:30:18;15.70;99.90
10583;DHT22;33679;51.218;6.786;2023-04-15T11:32:56;15.80;99.90
10583;DHT22;33679;51.218;6.786;2023-04-15T11:35:29;15.80;99.90
10583;DHT22;33679;51.218;6.786;2023-04-15T11:38:02;15.90;99.90
10583;DHT22;33679;51.218;6.786;2023-04-15T11:40:35;16.00;99.90
10583;DHT22;33679;51.218;6.786;2023-04-15T11:43:09;16.00;99.90
10583;DHT22;33679;51.218;6.786;2023-04-15T11:45:51;16.00;99.90
10583;DHT22;33679;51.218;6.786;2023-04-15T11:48:25;16.00;99.90
10583;DHT22;33679;51.218;6.786;2023-04-15T11:51:01;15.90;99.90
10583;DHT22;33679;51.218;6.786;2023-04-15T11:53:38;15.90;99.90
10583;DHT22;33679;51.218;6.786;2023-04-15T11:56:18;15.90;99.90
10583;DHT22;33679;51.218;6.786;2023-04-15T11:58:52;15.90;99.90
10583;DHT22;33679;51.218;6.786;2023-04-15T12:01:35;15.90;99.90
10583;DHT22;33679;51.218;6.786;2023-04-15T12:04:10;15.80;99.90
10583;DHT22;33679;51.218;6.786;2023-04-15T12:06:44;15.70;99.90
10583;DHT22;33679;51.218;6.786;2023-04-15T12:09:16;15.70;99.90
10583;DHT22;33679;51.218;6.786;2023-04-15T12:11:51;15.70;99.90
10583;DHT22;33679;51.218;6.786;2023-04-15T12:14:25;15.60;99.90
10583;DHT22;33679;51.218;6.786;2023-04-15T12:17:00;15.50;99.90
10583;DHT22;33679;51.218;6.786;2023-04-15T12:19:35;15.50;99.90
10583;DHT22;33679;51.218;6.786;2023-04-15T12:22:10;15.40;99.90
10583;DHT22;33679;51.218;6.786;2023-04-15T12:24:45;15.30;99.90
10583;DHT22;33679;51.218;6.786;2023-04-15T12:27:19;15.40;99.90
10583;DHT22;33679;51.218;6.786;2023-04-15T12:30:02;15.30;99.90
10583;DHT22;33679;51.218;6.786;2023-04-15T12:32:38;15.30;99.90
10583;DHT22;33679;51.218;6.786;2023-04-15T12:35:10;15.30;99.90
10583;DHT22;33679;51.218;6.786;2023-04-15T12:37:43;15.20;99.90
10583;DHT22;33679;51.218;6.786;2023-04-15T12:40:15;15.20;99.90
10583;DHT22;33679;51.218;6.786;2023-04-15T12:42:50;15.20;99.90
10583;DHT22;33679;51.218;6.786;2023-04-15T12:45:23;15.20;99.90
10583;DHT22;33679;51.218;6.786;2023-04-15T12:47:57;15.30;99.90
10583;DHT22;33679;51.218;6.786;2023-04-15T12:50:29;15.30;99.90
10583;DHT22;33679;51.218;6.786;2023-04-15T12:53:01;15.30;99.90
10583;DHT22;33679;51.218;6.786;2023-04-15T12:55:34;15.30;99.90
10583;DHT22;33679;51.218;6.786;2023-04-15T12:58:06;15.30;99.90
10583;DHT22;33679;51.218;6.786;2023-04-15T13:00:38;15.30;99.90
10583;DHT22;33679;51.218;6.786;2023-04-15T13:03:12;15.20;99.90
10583;DHT22;33679;51.218;6.786;2023-04-15T13:05:45;15.20;99.90
10583;DHT22;33679;51.218;6.786;2023-04-15T13:08:19;15.20;99.90
10583;DHT22;33679;51.218;6.786;2023-04-15T13:10:51;15.10;99.90
10583;DHT22;33679;51.218;6.786;2023-04-15T13:13:23;15.00;99.90
10583;DHT22;33679;51.218;6.786;2023-04-15T13:15:56;15.00;99.90
10583;DHT22;33679;51.218;6.786;2023-04-15T13:18:32;14.90;99.90
10583;DHT22;33679;51.218;6.786;2023-04-15T13:21:04;14.90;99.90
10583;DHT22;33679;51.218;6.786;2023-04-15T13:23:37;14.90;99.90
10583;DHT22;33679;51.218;6.786;2023-04-15T13:26:09;14.90;99.90
10583;DHT22;33679;51.218;6.786;2023-04-15T13:28:42;14.90;99.90
10583;DHT22;33679;51.218;6.786;2023-04-15T13:31:15;14.90;99.90
10583;DHT22;33679;51.218;6.786;2023-04-15T13:33:49;14.90;99.90
10583;DHT22;33679;51.218;6.786;2023-04-15T13:36:21;14.90;99.90
10583;DHT22;33679;51.218;6.786;2023-04-15T13:38:53;14.90;99.90
10583;DHT22;33679;51.218;6.786;2023-04-15T13:41:29;14.90;99.90
10583;DHT22;33679;51.218;6.786;2023-04-15T13:44:04;14.90;99.90
10583;DHT22;33679;51.218;6.786;2023-04-15T13:46:39;14.90;99.90
10583;DHT22;33679;51.218;6.786;2023-04-15T13:49:13;14.90;99.90
10583;DHT22;33679;51.218;6.786;2023-04-15T13:51:46;14.90;99.90
10583;DHT22;33679;51.218;6.786;2023-04-15T13:54:21;14.80;99.90
10583;DHT22;33679;51.218;6.786;2023-04-15T13:56:54;14.80;99.90
10583;DHT22;33679;51.218;6.786;2023-04-15T13:59:29;14.70;99.90
10583;DHT22;33679;51.218;6.786;2023-04-15T14:02:02;14.70;99.90
10583;DHT22;33679;51.218;6.786;2023-04-15T14:04:36;14.60;99.90
10583;DHT22;33679;51.218;6.786;2023-04-15T14:07:11;14.70;99.90
10583;DHT22;33679;51.218;6.786;2023-04-15T14:09:43;14.60;99.90
10583;DHT22;33679;51.218;6.786;2023-04-15T14:12:16;14.70;99.90
10583;DHT22;33679;51.218;6.786;2023-04-15T14:14:48;14.60;99.90
10583;DHT22;33679;51.218;6.786;2023-04-15T14:17:21;14.70;99.90
10583;DHT22;33679;51.218;6.786;2023-04-15T14:19:55;14.70;99.90
10583;DHT22;33679;51.218;6.786;2023-04-15T14:22:28;14.70;99.90
10583;DHT22;33679;51.218;6.786;2023-04-15T14:25:00;14.70;99.90
10583;DHT22;33679;51.218;6.786;2023-04-15T14:27:33;14.60;99.90
10583;DHT22;33679;51.218;6.786;2023-04-15T14:30:08;14.70;99.90
10583;DHT22;33679;51.218;6.786;2023-04-15T14:32:40;14.80;99.90
10583;DHT22;33679;51.218;6.786;2023-04-15T14:35:14;14.80;99.90
10583;DHT22;33679;51.218;6.786;2023-04-15T14:37:47;14.90;99.90
10583;DHT22;33679;51.218;6.786;2023-04-15T14:40:19;14.90;99.90
10583;DHT22;33679;51.218;6.786;2023-04-15T14:42:54;14.80;99.90
10583;DHT22;33679;51.218;6.786;2023-04-15T14:45:40;14.80;99.90
10583;DHT22;33679;51.218;6.786;2023-04-15T14:48:12;14.70;99.90
10583;DHT22;33679;51.218;6.786;2023-04-15T14:50:46;14.70;99.90
10583;DHT22;33679;51.218;6.786;2023-04-15T14:53:18;14.70;99.90
10583;DHT22;33679;51.218;6.786;2023-04-15T14:55:50;14.70;99.90
10583;DHT22;33679;51.218;6.786;2023-04-15T14:58:23;14.70;99.90
10583;DHT22;33679;51.218;6.786;2023-04-15T15:00:55;14.70;99.90
10583;DHT22;33679;51.218;6.786;2023-04-15T15:03:28;14.70;99.90
10583;DHT22;33679;51.218;6.786;2023-04-15T15:06:03;14.70;99.90
10583;DHT22;33679;51.218;6.786;2023-04-15T15:08:35;14.80;99.90
10583;DHT22;33679;51.218;6.786;2023-04-15T15:11:08;14.80;99.90
10583;DHT22;33679;51.218;6.786;2023-04-15T15:13:40;14.80;99.90
10583;DHT22;33679;51.218;6.786;2023-04-15T15:16:12;14.80;99.90
10583;DHT22;33679;51.218;6.786;2023-04-15T15:18:44;14.70;99.90
10583;DHT22;33679;51.218;6.786;2023-04-15T15:21:18;14.60;99.90
10583;DHT22;33679;51.218;6.786;2023-04-15T15:23:51;14.50;99.90
10583;DHT22;33679;51.218;6.786;2023-04-15T15:26:26;14.40;99.90
10583;DHT22;33679;51.218;6.786;2023-04-15T15:29:00;14.40;99.90
10583;DHT22;33679;51.218;6.786;2023-04-15T15:31:34;14.30;99.90
10583;DHT22;33679;51.218;6.786;2023-04-15T15:34:08;14.30;99.90
10583;DHT22;33679;51.218;6.786;2023-04-15T15:36:42;14.30;99.90
10583;DHT22;33679;51.218;6.786;2023-04-15T15:39:15;14.30;99.90
10583;DHT22;33679;51.218;6.786;2023-04-15T15:41:47;14.20;99.90
10583;DHT22;33679;51.218;6.786;2023-04-15T15:44:20;14.20;99.90
10583;DHT22;33679;51.218;6.786;2023-04-15T15:46:52;14.20;99.90
10583;DHT22;33679;51.218;6.786;2023-04-15T15:49:25;14.20;99.90
10583;DHT22;33679;51.218;6.786;2023-04-15T15:52:01;14.20;99.90
10583;DHT22;33679;51.218;6.786;2023-04-15T15:54:33;14.30;99.90
10583;DHT22;33679;51.218;6.786;2023-04-15T15:57:07;14.20;99.90
10583;DHT22;33679;51.218;6.786;2023-04-15T15:59:40;14.30;99.90
10583;DHT22;33679;51.218;6.786;2023-04-15T16:02:13;14.30;99.90
10583;DHT22;33679;51.218;6.786;2023-04-15T16:04:46;14.30;99.90
10583;DHT22;33679;51.218;6.786;2023-04-15T16:07:22;14.30;99.90
10583;DHT22;33679;51.218;6.786;2023-04-15T16:09:55;14.30;99.90
10583;DHT22;33679;51.218;6.786;2023-04-15T16:12:29;14.30;99.90
10583;DHT22;33679;51.218;6.786;2023-04-15T16:15:03;14.30;99.90